createdAt,value
2022-08-11T00:01:14.835Z,100.00
2022-08-11T00:03:48.614Z,100.00
2022-08-11T00:06:26.201Z,100.00
2022-08-11T00:08:55.835Z,100.00
2022-08-11T00:11:35.063Z,100.00
2022-08-11T00:14:05.652Z,100.00
2022-08-11T00:16:35.197Z,100.00
2022-08-11T00:19:05.232Z,100.00
2022-08-11T00:22:04.797Z,100.00
2022-08-11T00:24:53.548Z,100.00
2022-08-11T00:27:34.868Z,100.00
2022-08-11T00:30:05.674Z,100.00
2022-08-11T00:32:35.782Z,100.00
2022-08-11T00:35:54.281Z,100.00
2022-08-11T00:37:57.419Z,100.00
2022-08-11T00:40:38.049Z,100.00
2022-08-11T00:43:19.833Z,100.00
2022-08-11T00:46:10.525Z,100.00
2022-08-11T00:48:50.465Z,100.00
2022-08-11T00:51:57.592Z,100.00
2022-08-11T00:54:45.984Z,100.00
2022-08-11T00:57:38.594Z,100.00
2022-08-11T01:00:14.892Z,100.00
2022-08-11T01:03:03.562Z,100.00
2022-08-11T01:05:57.708Z,100.00
2022-08-11T01:08:48.177Z,100.00
2022-08-11T01:11:57.772Z,100.00
2022-08-11T01:15:17.025Z,100.00
2022-08-11T01:18:18.908Z,100.00
2022-08-11T01:21:35.603Z,100.00
2022-08-11T01:24:37.990Z,100.00
2022-08-11T01:27:22.984Z,100.00
2022-08-11T01:30:16.005Z,100.00
2022-08-11T01:33:31.819Z,100.00
2022-08-11T01:36:34.542Z,100.00
2022-08-11T01:39:23.387Z,100.00
2022-08-11T01:42:37.160Z,100.00
2022-08-11T01:45:22.922Z,100.00
2022-08-11T01:48:03.946Z,100.00
2022-08-11T01:50:47.700Z,100.00
2022-08-11T01:53:29.781Z,100.00
2022-08-11T01:56:14.624Z,100.00
2022-08-11T01:58:49.877Z,100.00
2022-08-11T02:01:38.586Z,100.00
2022-08-11T02:04:19.086Z,100.00
2022-08-11T02:06:56.600Z,100.00
2022-08-11T02:09:49.488Z,100.00
2022-08-11T02:12:36.967Z,100.00
2022-08-11T02:15:16.894Z,100.00
2022-08-11T02:18:05.161Z,100.00
2022-08-11T02:21:01.095Z,100.00
2022-08-11T02:24:05.743Z,100.00
2022-08-11T02:26:41.124Z,100.00
2022-08-11T02:29:20.227Z,100.00
2022-08-11T02:32:28.418Z,100.00
2022-08-11T02:35:06.487Z,100.00
2022-08-11T02:37:45.596Z,100.00
2022-08-11T02:40:25.182Z,100.00
2022-08-11T02:43:19.089Z,100.00
2022-08-11T02:45:54.737Z,100.00
2022-08-11T02:49:03.797Z,100.00
2022-08-11T02:51:46.236Z,100.00
2022-08-11T02:54:22.554Z,100.00
2022-08-11T02:57:00.627Z,100.00
2022-08-11T02:59:54.466Z,100.00
2022-08-11T03:02:44.285Z,100.00
2022-08-11T03:05:32.882Z,100.00
2022-08-11T03:08:15.192Z,100.00
2022-08-11T03:11:12.704Z,100.00
2022-08-11T03:14:05.164Z,100.00
2022-08-11T03:16:48.473Z,100.00
2022-08-11T03:19:26.095Z,100.00
2022-08-11T03:22:06.633Z,100.00
2022-08-11T03:24:50.089Z,100.00
2022-08-11T03:27:32.923Z,100.00
2022-08-11T03:30:09.201Z,100.00
2022-08-11T03:33:09.176Z,100.00
2022-08-11T03:35:44.618Z,100.00
2022-08-11T03:38:17.093Z,100.00
2022-08-11T03:42:01.754Z,100.00
2022-08-11T03:44:19.700Z,100.00
2022-08-11T03:47:02.929Z,100.00
2022-08-11T03:49:45.799Z,100.00
2022-08-11T03:52:33.492Z,100.00
2022-08-11T03:55:11.087Z,100.00
2022-08-11T03:58:24.947Z,100.00
2022-08-11T04:01:36.766Z,100.00
2022-08-11T04:04:25.793Z,100.00
2022-08-11T04:07:25.617Z,100.00
2022-08-11T04:10:27.489Z,100.00
2022-08-11T04:13:36.746Z,100.00
2022-08-11T04:16:16.691Z,100.00
2022-08-11T04:19:11.222Z,100.00
2022-08-11T04:22:19.465Z,100.00
2022-08-11T04:25:22.622Z,100.00
2022-08-11T04:28:28.672Z,100.00
2022-08-11T04:31:51.014Z,100.00
2022-08-11T04:34:42.559Z,100.00
2022-08-11T04:38:07.570Z,100.00
2022-08-11T04:41:14.542Z,100.00
2022-08-11T04:44:21.176Z,100.00
2022-08-11T04:48:03.598Z,100.00
2022-08-11T04:51:04.043Z,100.00
2022-08-11T04:54:15.575Z,100.00
2022-08-11T04:57:05.337Z,100.00
2022-08-11T05:00:21.855Z,100.00
2022-08-11T05:03:23.962Z,100.00
2022-08-11T05:06:25.372Z,100.00
2022-08-11T05:09:23.636Z,100.00
2022-08-11T05:12:21.191Z,100.00
2022-08-11T05:15:16.520Z,100.00
2022-08-11T05:18:13.010Z,100.00
2022-08-11T05:21:05.761Z,100.00
2022-08-11T05:23:58.151Z,100.00
2022-08-11T05:26:49.913Z,100.00
2022-08-11T05:30:01.694Z,100.00
2022-08-11T05:32:58.062Z,100.00
2022-08-11T05:36:01.970Z,100.00
2022-08-11T05:38:49.032Z,100.00
2022-08-11T05:41:39.232Z,100.00
2022-08-11T05:44:29.934Z,100.00
2022-08-11T05:47:16.936Z,100.00
2022-08-11T05:50:09.259Z,100.00
2022-08-11T05:53:04.797Z,100.00
2022-08-11T05:56:02.120Z,100.00
2022-08-11T05:58:42.020Z,100.00
2022-08-11T06:01:23.621Z,100.00
2022-08-11T06:04:12.304Z,100.00
2022-08-11T06:06:47.814Z,100.00
2022-08-11T06:09:16.995Z,100.00
2022-08-11T06:11:46.258Z,100.00
2022-08-11T06:14:16.625Z,100.00
2022-08-11T06:16:53.451Z,100.00
2022-08-11T06:19:24.602Z,100.00
2022-08-11T06:21:54.597Z,100.00
2022-08-11T06:24:24.103Z,100.00
2022-08-11T06:27:11.773Z,100.00
2022-08-11T06:29:54.926Z,100.00
2022-08-11T06:32:32.826Z,100.00
2022-08-11T06:35:19.237Z,100.00
2022-08-11T06:38:02.578Z,100.00
2022-08-11T06:40:38.297Z,100.00
2022-08-11T06:43:17.101Z,100.00
2022-08-11T06:45:56.736Z,100.00
2022-08-11T06:48:27.353Z,100.00
2022-08-11T06:51:12.705Z,100.00
2022-08-11T06:54:03.166Z,100.00
2022-08-11T06:57:28.266Z,100.00
2022-08-11T07:00:02.656Z,100.00
2022-08-11T07:02:35.488Z,100.00
2022-08-11T07:05:11.771Z,100.00
2022-08-11T07:08:47.210Z,100.00
2022-08-11T07:12:02.812Z,100.00
2022-08-11T07:14:50.935Z,100.00
2022-08-11T07:17:24.955Z,100.00
2022-08-11T07:20:16.763Z,100.00
2022-08-11T07:23:14.864Z,100.00
2022-08-11T07:26:17.001Z,100.00
2022-08-11T07:28:59.284Z,100.00
2022-08-11T07:31:36.007Z,100.00
2022-08-11T07:34:18.204Z,100.00
2022-08-11T07:36:54.287Z,100.00
2022-08-11T07:39:27.860Z,100.00
2022-08-11T07:41:59.529Z,100.00
2022-08-11T07:44:34.648Z,100.00
2022-08-11T07:47:22.370Z,100.00
2022-08-11T07:50:11.684Z,100.00
2022-08-11T07:52:41.501Z,100.00
2022-08-11T07:55:17.020Z,100.00
2022-08-11T07:58:15.954Z,100.00
2022-08-11T08:01:21.330Z,100.00
2022-08-11T08:04:10.146Z,100.00
2022-08-11T08:06:58.300Z,100.00
2022-08-11T08:09:45.659Z,100.00
2022-08-11T08:12:34.110Z,100.00
2022-08-11T08:15:25.196Z,100.00
2022-08-11T08:18:09.190Z,100.00
2022-08-11T08:20:50.282Z,100.00
2022-08-11T08:23:33.560Z,100.00
2022-08-11T08:26:04.493Z,100.00
2022-08-11T08:28:35.916Z,100.00
2022-08-11T08:31:04.850Z,100.00
2022-08-11T08:33:34.398Z,100.00
2022-08-11T08:36:15.580Z,100.00
2022-08-11T08:38:48.577Z,100.00
2022-08-11T08:41:23.707Z,100.00
2022-08-11T08:44:05.903Z,100.00
2022-08-11T08:46:49.817Z,100.00
2022-08-11T08:49:23.991Z,100.00
2022-08-11T08:52:02.440Z,100.00
2022-08-11T08:54:47.211Z,100.00
2022-08-11T08:57:18.765Z,100.00
2022-08-11T08:59:51.613Z,100.00
2022-08-11T09:02:34.305Z,100.00
2022-08-11T09:05:13.587Z,100.00
2022-08-11T09:07:43.406Z,100.00
2022-08-11T09:10:17.441Z,100.00
2022-08-11T09:12:47.168Z,100.00
2022-08-11T09:15:19.430Z,100.00
2022-08-11T09:17:51.988Z,100.00
2022-08-11T09:20:23.961Z,100.00
2022-08-11T09:26:22.456Z,100.00
2022-08-11T09:29:01.861Z,100.00
2022-08-11T09:31:39.727Z,100.00
2022-08-11T09:34:10.981Z,100.00
2022-08-11T09:37:00.230Z,100.00
2022-08-11T09:39:49.146Z,100.00
2022-08-11T09:42:22.986Z,100.00
2022-08-11T09:44:53.833Z,100.00
2022-08-11T09:47:26.265Z,100.00
2022-08-11T09:50:00.332Z,100.00
2022-08-11T09:52:32.060Z,100.00
2022-08-11T09:55:02.642Z,100.00
2022-08-11T09:57:49.046Z,100.00
2022-08-11T10:00:18.360Z,100.00
2022-08-11T10:02:53.214Z,100.00
2022-08-11T10:05:40.055Z,100.00
2022-08-11T10:08:14.012Z,100.00
2022-08-11T10:10:43.388Z,100.00
2022-08-11T10:14:31.321Z,100.00
2022-08-11T10:16:15.661Z,100.00
2022-08-11T10:18:53.329Z,100.00
2022-08-11T10:21:29.234Z,100.00
2022-08-11T10:24:18.979Z,100.00
2022-08-11T10:26:55.703Z,100.00
2022-08-11T10:29:50.046Z,100.00
2022-08-11T10:32:57.511Z,100.00
2022-08-11T10:35:30.891Z,100.00
2022-08-11T10:38:08.050Z,100.00
2022-08-11T10:40:40.988Z,100.00
2022-08-11T10:43:14.472Z,100.00
2022-08-11T10:46:29.815Z,100.00
2022-08-11T10:49:01.213Z,100.00
2022-08-11T10:51:52.067Z,100.00
2022-08-11T10:54:41.024Z,100.00
2022-08-11T10:57:28.346Z,100.00
2022-08-11T10:59:58.845Z,100.00
2022-08-11T11:02:28.614Z,93.49
2022-08-11T11:05:09.418Z,100.00
2022-08-11T11:07:49.042Z,89.01
2022-08-11T11:10:18.084Z,100.00
2022-08-11T11:13:06.583Z,84.94
2022-08-11T11:15:55.880Z,86.41
2022-08-11T11:18:28.823Z,83.08
2022-08-11T11:21:01.900Z,58.03
2022-08-11T11:23:39.461Z,64.75
2022-08-11T11:26:42.572Z,61.18
2022-08-11T11:29:38.496Z,59.55
2022-08-11T11:32:22.014Z,86.45
2022-08-11T11:35:12.497Z,83.21
2022-08-11T11:38:03.722Z,91.55
2022-08-11T11:40:34.981Z,93.48
2022-08-11T11:43:05.560Z,93.61
2022-08-11T11:45:35.006Z,61.47
2022-08-11T11:48:04.939Z,58.50
2022-08-11T11:50:37.947Z,54.42
2022-08-11T11:53:11.922Z,71.87
2022-08-11T11:55:43.277Z,70.22
2022-08-11T11:58:31.599Z,62.80
2022-08-11T12:01:20.219Z,75.30
2022-08-11T12:03:52.604Z,69.23
2022-08-11T12:06:23.080Z,65.90
2022-08-11T12:08:56.216Z,53.45
2022-08-11T12:11:46.544Z,50.96
2022-08-11T12:14:19.748Z,55.41
2022-08-11T12:16:50.329Z,53.94
2022-08-11T12:19:25.205Z,45.56
2022-08-11T12:22:14.430Z,44.71
2022-08-11T12:25:02.155Z,61.89
2022-08-11T12:27:32.927Z,76.41
2022-08-11T12:30:05.999Z,79.00
2022-08-11T12:32:37.659Z,76.05
2022-08-11T12:35:08.605Z,100.00
2022-08-11T12:37:41.486Z,100.00
2022-08-11T12:40:49.644Z,100.00
2022-08-11T12:43:41.723Z,100.00
2022-08-11T12:46:14.136Z,100.00
2022-08-11T12:49:04.115Z,100.00
2022-08-11T12:52:00.875Z,100.00
2022-08-11T12:54:51.880Z,100.00
2022-08-11T12:57:46.953Z,100.00
2022-08-11T13:00:37.172Z,100.00
2022-08-11T13:03:26.990Z,100.00
2022-08-11T13:05:59.172Z,93.80
2022-08-11T13:08:30.429Z,81.26
2022-08-11T13:11:19.400Z,61.54
2022-08-11T13:13:54.781Z,69.80
2022-08-11T13:16:31.006Z,59.44
2022-08-11T13:19:01.904Z,74.57
2022-08-11T13:21:32.289Z,73.63
2022-08-11T13:24:03.763Z,88.47
2022-08-11T13:26:43.531Z,96.79
2022-08-11T13:29:20.638Z,100.00
2022-08-11T13:31:52.003Z,100.00
2022-08-11T13:34:21.691Z,100.00
2022-08-11T13:36:53.204Z,100.00
2022-08-11T13:39:24.617Z,100.00
2022-08-11T13:41:57.003Z,100.00
2022-08-11T13:44:28.601Z,100.00
2022-08-11T13:47:04.392Z,100.00
2022-08-11T13:49:39.815Z,83.68
2022-08-11T13:52:14.105Z,58.92
2022-08-11T13:54:44.248Z,54.08
2022-08-11T13:58:19.331Z,54.43
2022-08-11T14:00:25.019Z,56.81
2022-08-11T14:02:59.357Z,51.67
2022-08-11T14:05:32.268Z,51.97
2022-08-11T14:08:06.284Z,56.89
2022-08-11T14:10:37.507Z,52.51
2022-08-11T14:13:27.935Z,61.25
2022-08-11T14:16:04.830Z,57.24
2022-08-11T14:18:36.198Z,61.30
2022-08-11T14:21:24.713Z,61.73
2022-08-11T14:23:57.981Z,79.27
2022-08-11T14:26:36.730Z,81.00
2022-08-11T14:29:09.199Z,62.12
2022-08-11T14:31:40.286Z,90.92
2022-08-11T14:34:12.776Z,96.28
2022-08-11T14:36:45.490Z,87.74
2022-08-11T14:39:17.219Z,89.91
2022-08-11T14:42:10.923Z,99.60
2022-08-11T14:45:16.678Z,100.00
2022-08-11T14:47:50.126Z,100.00
2022-08-11T14:50:24.143Z,100.00
2022-08-11T14:52:56.722Z,100.00
2022-08-11T14:55:45.216Z,100.00
2022-08-11T14:58:18.819Z,100.00
2022-08-11T15:00:51.169Z,100.00
2022-08-11T15:03:19.657Z,100.00
2022-08-11T15:05:55.766Z,100.00
2022-08-11T15:08:53.042Z,100.00
2022-08-11T15:11:41.454Z,100.00
2022-08-11T15:14:12.728Z,100.00
2022-08-11T15:17:01.874Z,100.00
2022-08-11T15:19:40.227Z,100.00
2022-08-11T15:22:29.933Z,100.00
2022-08-11T15:25:00.158Z,100.00
2022-08-11T15:27:54.753Z,93.58
2022-08-11T15:30:42.397Z,93.42
2022-08-11T15:33:30.625Z,100.00
2022-08-11T15:36:21.685Z,100.00
2022-08-11T15:38:56.412Z,100.00
2022-08-11T15:41:56.406Z,100.00
2022-08-11T15:45:06.236Z,100.00
2022-08-11T15:47:41.674Z,100.00
2022-08-11T15:50:17.483Z,100.00
2022-08-11T15:52:59.829Z,100.00
2022-08-11T15:55:33.847Z,100.00
2022-08-11T15:58:22.422Z,100.00
2022-08-11T16:01:09.727Z,100.00
2022-08-11T16:04:08.996Z,100.00
2022-08-11T16:06:49.484Z,100.00
2022-08-11T16:09:26.404Z,100.00
2022-08-11T16:12:03.268Z,100.00
2022-08-11T16:14:53.587Z,100.00
2022-08-11T16:17:26.851Z,100.00
2022-08-11T16:19:58.639Z,100.00
2022-08-11T16:22:36.594Z,100.00
2022-08-11T16:27:02.760Z,100.00
2022-08-11T16:28:05.275Z,100.00
2022-08-11T16:30:36.390Z,100.00
2022-08-11T16:33:49.138Z,100.00
2022-08-11T16:36:14.397Z,100.00
2022-08-11T16:38:45.054Z,100.00
2022-08-11T16:41:37.862Z,100.00
2022-08-11T16:44:37.084Z,100.00
2022-08-11T16:47:09.406Z,100.00
2022-08-11T16:49:43.431Z,100.00
2022-08-11T16:52:22.000Z,100.00
2022-08-11T16:54:52.708Z,100.00
2022-08-11T16:57:48.000Z,100.00
2022-08-11T17:00:19.422Z,100.00
2022-08-11T17:03:10.415Z,100.00
2022-08-11T17:06:03.160Z,100.00
2022-08-11T17:08:57.529Z,100.00
2022-08-11T17:11:46.515Z,100.00
2022-08-11T17:14:35.335Z,100.00
2022-08-11T17:17:12.998Z,100.00
2022-08-11T17:20:40.091Z,100.00
2022-08-11T17:22:56.348Z,100.00
2022-08-11T17:25:28.415Z,100.00
2022-08-11T17:27:58.280Z,100.00
2022-08-11T17:30:49.924Z,100.00
2022-08-11T17:33:40.796Z,100.00
2022-08-11T17:36:11.903Z,100.00
2022-08-11T17:38:42.392Z,100.00
2022-08-11T17:41:30.590Z,100.00
2022-08-11T17:44:22.008Z,100.00
2022-08-11T17:47:09.950Z,100.00
2022-08-11T17:49:41.099Z,100.00
2022-08-11T17:52:34.653Z,100.00
2022-08-11T17:55:51.902Z,100.00
2022-08-11T17:58:32.440Z,100.00
2022-08-11T18:01:09.244Z,100.00
2022-08-11T18:03:57.933Z,100.00
2022-08-11T18:06:33.711Z,100.00
2022-08-11T18:09:24.143Z,100.00
2022-08-11T18:12:13.080Z,100.00
2022-08-11T18:15:05.296Z,100.00
2022-08-11T18:17:53.448Z,100.00
2022-08-11T18:20:40.236Z,100.00
2022-08-11T18:23:41.799Z,100.00
2022-08-11T18:26:38.090Z,100.00
2022-08-11T18:29:27.513Z,100.00
2022-08-11T18:32:20.960Z,100.00
2022-08-11T18:35:11.050Z,100.00
2022-08-11T18:38:04.085Z,100.00
2022-08-11T18:40:54.962Z,100.00
2022-08-11T18:43:43.839Z,100.00
2022-08-11T18:46:35.026Z,100.00
2022-08-11T18:49:28.673Z,100.00
2022-08-11T18:52:36.455Z,100.00
2022-08-11T18:55:28.433Z,100.00
2022-08-11T18:58:19.151Z,100.00
2022-08-11T19:01:07.108Z,100.00
2022-08-11T19:03:55.600Z,100.00
2022-08-11T19:06:52.963Z,100.00
2022-08-11T19:09:39.748Z,100.00
2022-08-11T19:12:30.638Z,100.00
2022-08-11T19:15:21.187Z,100.00
2022-08-11T19:18:11.289Z,100.00
2022-08-11T19:21:03.192Z,100.00
2022-08-11T19:23:54.179Z,100.00
2022-08-11T19:26:42.627Z,100.00
2022-08-11T19:30:11.910Z,100.00
2022-08-11T19:32:43.335Z,100.00
2022-08-11T19:35:31.127Z,100.00
2022-08-11T19:38:21.666Z,100.00
2022-08-11T19:41:08.982Z,100.00
2022-08-11T19:43:57.893Z,100.00
2022-08-11T19:46:45.705Z,100.00
2022-08-11T19:49:35.465Z,100.00
2022-08-11T19:52:23.252Z,100.00
2022-08-11T19:55:12.046Z,100.00
2022-08-11T19:58:02.691Z,100.00
2022-08-11T20:00:49.722Z,100.00
2022-08-11T20:03:36.747Z,100.00
2022-08-11T20:06:28.017Z,100.00
2022-08-11T20:09:19.008Z,100.00
2022-08-11T20:12:08.863Z,100.00
2022-08-11T20:14:59.855Z,100.00
2022-08-11T20:17:52.191Z,100.00
2022-08-11T20:20:42.013Z,100.00
2022-08-11T20:23:33.083Z,100.00
2022-08-11T20:26:30.646Z,100.00
2022-08-11T20:29:19.825Z,100.00
2022-08-11T20:32:09.868Z,100.00
2022-08-11T20:35:05.845Z,100.00
2022-08-11T20:37:54.623Z,100.00
2022-08-11T20:40:45.131Z,100.00
2022-08-11T20:44:08.096Z,100.00
2022-08-11T20:46:41.975Z,100.00
2022-08-11T20:49:41.307Z,100.00
2022-08-11T20:52:37.281Z,100.00
2022-08-11T20:55:51.810Z,100.00
2022-08-11T21:01:44.754Z,100.00
2022-08-11T21:07:41.463Z,100.00
2022-08-11T21:10:30.670Z,100.00
2022-08-11T21:13:26.712Z,100.00
2022-08-11T21:16:25.454Z,100.00
2022-08-11T21:20:00.166Z,100.00
2022-08-11T21:22:59.633Z,100.00
2022-08-11T21:25:54.172Z,100.00
2022-08-11T21:28:40.934Z,100.00
2022-08-11T21:31:29.383Z,100.00
2022-08-11T21:34:16.873Z,100.00
2022-08-11T21:37:04.544Z,100.00
2022-08-11T21:39:53.245Z,100.00
2022-08-11T21:42:41.637Z,100.00
2022-08-11T21:45:29.375Z,100.00
2022-08-11T21:48:19.974Z,100.00
2022-08-11T21:51:06.293Z,100.00
2022-08-11T21:53:52.906Z,100.00
2022-08-11T21:56:42.066Z,100.00
2022-08-11T21:59:30.164Z,100.00
2022-08-11T22:02:18.046Z,100.00
2022-08-11T22:05:06.682Z,100.00
2022-08-11T22:07:53.391Z,100.00
2022-08-11T22:10:43.398Z,100.00
2022-08-11T22:13:33.173Z,100.00
2022-08-11T22:16:22.030Z,100.00
2022-08-11T22:19:09.825Z,100.00
2022-08-11T22:22:03.816Z,100.00
2022-08-11T22:24:51.917Z,100.00
2022-08-11T22:27:39.497Z,100.00
2022-08-11T22:30:28.511Z,100.00
2022-08-11T22:33:16.894Z,100.00
2022-08-11T22:36:05.567Z,100.00
2022-08-11T22:38:55.314Z,100.00
2022-08-11T22:41:43.009Z,100.00
2022-08-11T22:44:29.773Z,100.00
2022-08-11T22:47:18.960Z,100.00
2022-08-11T22:50:07.766Z,100.00
2022-08-11T22:52:55.840Z,100.00
2022-08-11T22:55:45.629Z,100.00
2022-08-11T22:58:33.645Z,100.00
2022-08-11T23:01:20.811Z,100.00
2022-08-11T23:04:08.625Z,100.00
2022-08-11T23:06:57.838Z,100.00
2022-08-11T23:09:47.768Z,100.00
2022-08-11T23:12:36.173Z,100.00
2022-08-11T23:15:23.195Z,100.00
2022-08-11T23:18:10.037Z,100.00
2022-08-11T23:21:00.376Z,100.00
2022-08-11T23:23:48.046Z,100.00
2022-08-11T23:26:37.450Z,100.00
2022-08-11T23:29:28.032Z,100.00
2022-08-11T23:32:15.138Z,100.00
2022-08-11T23:35:39.111Z,100.00
2022-08-11T23:38:11.637Z,100.00
2022-08-11T23:40:58.445Z,100.00
2022-08-11T23:43:45.121Z,100.00
2022-08-11T23:46:32.927Z,100.00
2022-08-11T23:49:22.331Z,100.00
2022-08-11T23:52:11.813Z,100.00
2022-08-11T23:54:59.195Z,100.00
2022-08-11T23:57:49.323Z,100.00
